RYR84QP LFML-LFRS
Flight info
| Callsign | RYR84QP |
|---|---|
| Flight time | N/A |
| Altitude | 32000 |
| Route | LERGA DCT FOUCO DCT MANAK |
| Aircraft | B738/M-SDE2E3FGHIRWXY/LB1 |
Departure
| Time | N/A |
|---|---|
| Airport | Marseille Provence Airport (LFML) |
Arrival
| Time | 2026-05-01 12:43 |
|---|---|
| Airport | Nantes Atlantique Airport (LFRS) |
| Time | Latitude | Longitude | Altitude | Speed | Heading |
|---|---|---|---|---|---|
| 2026-05-01 11:55 | 44.79684 | 3.18018 | 32280 ft | 410 kts | 296° |
| 2026-05-01 11:55 | 44.81026 | 3.14419 | 32279 ft | 410 kts | 296° |
| 2026-05-01 11:56 | 44.83664 | 3.07326 | 32276 ft | 409 kts | 296° |
| 2026-05-01 11:56 | 44.86299 | 3.00225 | 32275 ft | 409 kts | 296° |
| 2026-05-01 11:57 | 44.88484 | 2.94323 | 32278 ft | 408 kts | 296° |
| 2026-05-01 11:57 | 44.91546 | 2.86028 | 32275 ft | 407 kts | 296° |
| 2026-05-01 11:58 | 44.94143 | 2.78975 | 32270 ft | 407 kts | 295° |
| 2026-05-01 11:59 | 44.98071 | 2.68265 | 32268 ft | 408 kts | 295° |
| 2026-05-01 11:59 | 45.00661 | 2.61185 | 32266 ft | 408 kts | 295° |
| 2026-05-01 12:00 | 45.04561 | 2.50488 | 32269 ft | 408 kts | 295° |
| 2026-05-01 12:01 | 45.08456 | 2.39763 | 32267 ft | 409 kts | 295° |
| 2026-05-01 12:01 | 45.11045 | 2.32610 | 32266 ft | 408 kts | 295° |
| 2026-05-01 12:02 | 45.13627 | 2.25455 | 32264 ft | 408 kts | 295° |
| 2026-05-01 12:02 | 45.16202 | 2.18305 | 32257 ft | 407 kts | 295° |
| 2026-05-01 12:03 | 45.18769 | 2.11155 | 32256 ft | 407 kts | 295° |
| 2026-05-01 12:03 | 45.21328 | 2.04013 | 32256 ft | 406 kts | 294° |
| 2026-05-01 12:04 | 45.23878 | 1.96872 | 32252 ft | 406 kts | 294° |
| 2026-05-01 12:04 | 45.26422 | 1.89732 | 32249 ft | 405 kts | 294° |
| 2026-05-01 12:05 | 45.28956 | 1.82599 | 32249 ft | 405 kts | 294° |
| 2026-05-01 12:05 | 45.32325 | 1.73087 | 32237 ft | 404 kts | 294° |
| 2026-05-01 12:06 | 45.34844 | 1.65959 | 32239 ft | 404 kts | 294° |
| 2026-05-01 12:06 | 45.37355 | 1.58827 | 32239 ft | 403 kts | 294° |
| 2026-05-01 12:07 | 45.39861 | 1.51690 | 32233 ft | 403 kts | 294° |
| 2026-05-01 12:07 | 45.42365 | 1.44546 | 32233 ft | 403 kts | 294° |
| 2026-05-01 12:08 | 45.44861 | 1.37400 | 32231 ft | 403 kts | 294° |
| 2026-05-01 12:08 | 45.47355 | 1.30245 | 32231 ft | 403 kts | 294° |
| 2026-05-01 12:09 | 45.49840 | 1.23090 | 32229 ft | 403 kts | 294° |
| 2026-05-01 12:09 | 45.52319 | 1.15938 | 32230 ft | 402 kts | 294° |
| 2026-05-01 12:10 | 45.56024 | 1.05212 | 32230 ft | 401 kts | 294° |
| 2026-05-01 12:11 | 45.59694 | 0.94546 | 32230 ft | 400 kts | 294° |
| 2026-05-01 12:11 | 45.62135 | 0.87429 | 32228 ft | 398 kts | 294° |
| 2026-05-01 12:12 | 45.64564 | 0.80325 | 32228 ft | 397 kts | 293° |
| 2026-05-01 12:12 | 45.66983 | 0.73230 | 32222 ft | 397 kts | 293° |
| 2026-05-01 12:13 | 45.69397 | 0.66132 | 32221 ft | 397 kts | 293° |
| 2026-05-01 12:13 | 45.71797 | 0.59060 | 32073 ft | 390 kts | 293° |
| 2026-05-01 12:14 | 45.72969 | 0.55601 | 31807 ft | 383 kts | 293° |
| 2026-05-01 12:14 | 45.74119 | 0.52201 | 31548 ft | 376 kts | 293° |
| 2026-05-01 12:14 | 45.75248 | 0.48861 | 31293 ft | 371 kts | 293° |
| 2026-05-01 12:14 | 45.76354 | 0.45559 | 31040 ft | 365 kts | 293° |
| 2026-05-01 12:15 | 45.77438 | 0.42283 | 30729 ft | 362 kts | 292° |
| 2026-05-01 12:15 | 45.78507 | 0.39039 | 30400 ft | 359 kts | 292° |
| 2026-05-01 12:15 | 45.79569 | 0.35810 | 30065 ft | 357 kts | 292° |
| 2026-05-01 12:15 | 45.80620 | 0.32610 | 29732 ft | 353 kts | 292° |
| 2026-05-01 12:16 | 45.81665 | 0.29428 | 29384 ft | 351 kts | 292° |
| 2026-05-01 12:16 | 45.82700 | 0.26274 | 29028 ft | 348 kts | 292° |
| 2026-05-01 12:16 | 45.83726 | 0.23142 | 28689 ft | 346 kts | 292° |
| 2026-05-01 12:16 | 45.84744 | 0.20036 | 28345 ft | 343 kts | 292° |
| 2026-05-01 12:17 | 45.85755 | 0.16948 | 28000 ft | 341 kts | 292° |
| 2026-05-01 12:17 | 45.86756 | 0.13885 | 27668 ft | 338 kts | 292° |
| 2026-05-01 12:17 | 45.87751 | 0.10837 | 27330 ft | 336 kts | 292° |
| 2026-05-01 12:17 | 45.88739 | 0.07807 | 26993 ft | 334 kts | 292° |
| 2026-05-01 12:18 | 45.89721 | 0.04794 | 26661 ft | 332 kts | 292° |
| 2026-05-01 12:18 | 45.90696 | 0.01796 | 26334 ft | 330 kts | 292° |
| 2026-05-01 12:18 | 45.91664 | -0.01184 | 26001 ft | 328 kts | 292° |
| 2026-05-01 12:18 | 45.92627 | -0.04151 | 25659 ft | 327 kts | 292° |
| 2026-05-01 12:19 | 45.93589 | -0.07117 | 25322 ft | 328 kts | 292° |
| 2026-05-01 12:19 | 45.94551 | -0.10090 | 24993 ft | 329 kts | 292° |
| 2026-05-01 12:19 | 45.95520 | -0.13088 | 24676 ft | 335 kts | 292° |
| 2026-05-01 12:19 | 45.96517 | -0.16176 | 24345 ft | 345 kts | 292° |
| 2026-05-01 12:20 | 45.97531 | -0.19322 | 23984 ft | 348 kts | 293° |
| 2026-05-01 12:20 | 45.98547 | -0.22470 | 23624 ft | 346 kts | 292° |
| 2026-05-01 12:20 | 45.99560 | -0.25615 | 23265 ft | 345 kts | 292° |
| 2026-05-01 12:20 | 46.00564 | -0.28734 | 22922 ft | 343 kts | 293° |
| 2026-05-01 12:21 | 46.01566 | -0.31851 | 22568 ft | 342 kts | 293° |
| 2026-05-01 12:21 | 46.02560 | -0.34951 | 22223 ft | 341 kts | 293° |
| 2026-05-01 12:21 | 46.03551 | -0.38044 | 21883 ft | 339 kts | 293° |
| 2026-05-01 12:21 | 46.04535 | -0.41120 | 21542 ft | 338 kts | 293° |
| 2026-05-01 12:22 | 46.05517 | -0.44192 | 21199 ft | 337 kts | 293° |
| 2026-05-01 12:22 | 46.06493 | -0.47250 | 20864 ft | 336 kts | 293° |
| 2026-05-01 12:22 | 46.07466 | -0.50300 | 20526 ft | 334 kts | 293° |
| 2026-05-01 12:22 | 46.08431 | -0.53330 | 20191 ft | 332 kts | 293° |
| 2026-05-01 12:23 | 46.09392 | -0.56349 | 19856 ft | 331 kts | 293° |
| 2026-05-01 12:23 | 46.10334 | -0.59315 | 19535 ft | 329 kts | 293° |
| 2026-05-01 12:23 | 46.11282 | -0.62301 | 19207 ft | 327 kts | 293° |
| 2026-05-01 12:23 | 46.12227 | -0.65282 | 18879 ft | 326 kts | 293° |
| 2026-05-01 12:24 | 46.13166 | -0.68252 | 18549 ft | 325 kts | 293° |
| 2026-05-01 12:24 | 46.14101 | -0.71205 | 18233 ft | 323 kts | 293° |
| 2026-05-01 12:24 | 46.15030 | -0.74145 | 17909 ft | 322 kts | 293° |
| 2026-05-01 12:24 | 46.15953 | -0.77073 | 17594 ft | 320 kts | 293° |
| 2026-05-01 12:25 | 46.16871 | -0.79987 | 17272 ft | 318 kts | 293° |
| 2026-05-01 12:25 | 46.18694 | -0.85775 | 16647 ft | 315 kts | 293° |
| 2026-05-01 12:25 | 46.19596 | -0.88648 | 16337 ft | 314 kts | 293° |
| 2026-05-01 12:26 | 46.20493 | -0.91507 | 16031 ft | 312 kts | 293° |
| 2026-05-01 12:26 | 46.23115 | -0.96389 | 15425 ft | 311 kts | 320° |
| 2026-05-01 12:26 | 46.24855 | -0.98261 | 15030 ft | 313 kts | 324° |
| 2026-05-01 12:27 | 46.26658 | -1.00008 | 14712 ft | 313 kts | 326° |
| 2026-05-01 12:27 | 46.30284 | -1.03440 | 14075 ft | 310 kts | 326° |
| 2026-05-01 12:28 | 46.33875 | -1.06877 | 13455 ft | 308 kts | 325° |
| 2026-05-01 12:28 | 46.35655 | -1.08596 | 13156 ft | 307 kts | 325° |
| 2026-05-01 12:28 | 46.39181 | -1.12017 | 12544 ft | 304 kts | 325° |
| 2026-05-01 12:29 | 46.40938 | -1.13728 | 12234 ft | 303 kts | 325° |
| 2026-05-01 12:29 | 46.42683 | -1.15432 | 11931 ft | 302 kts | 325° |
| 2026-05-01 12:29 | 46.46133 | -1.18803 | 11268 ft | 302 kts | 325° |
| 2026-05-01 12:30 | 46.49600 | -1.22198 | 10685 ft | 298 kts | 325° |
| 2026-05-01 12:30 | 46.51313 | -1.23878 | 10366 ft | 297 kts | 325° |
| 2026-05-01 12:30 | 46.53028 | -1.25561 | 10047 ft | 297 kts | 325° |
| 2026-05-01 12:31 | 46.54733 | -1.27235 | 9758 ft | 295 kts | 325° |
| 2026-05-01 12:31 | 46.56429 | -1.28902 | 9483 ft | 293 kts | 325° |
| 2026-05-01 12:31 | 46.58111 | -1.30556 | 9189 ft | 292 kts | 325° |
| 2026-05-01 12:31 | 46.59790 | -1.32210 | 8868 ft | 291 kts | 325° |
| 2026-05-01 12:32 | 46.61462 | -1.33856 | 8588 ft | 290 kts | 325° |
| 2026-05-01 12:32 | 46.64769 | -1.37119 | 8082 ft | 286 kts | 325° |
| 2026-05-01 12:32 | 46.66416 | -1.38743 | 7828 ft | 286 kts | 325° |
| 2026-05-01 12:33 | 46.68062 | -1.40369 | 7588 ft | 285 kts | 325° |
| 2026-05-01 12:33 | 46.69703 | -1.41991 | 7337 ft | 285 kts | 325° |
| 2026-05-01 12:33 | 46.71325 | -1.43627 | 7103 ft | 282 kts | 321° |
| 2026-05-01 12:33 | 46.72778 | -1.45523 | 6825 ft | 280 kts | 314° |
| 2026-05-01 12:34 | 46.74146 | -1.47534 | 6549 ft | 279 kts | 313° |
| 2026-05-01 12:34 | 46.75495 | -1.49552 | 6293 ft | 277 kts | 313° |
| 2026-05-01 12:34 | 46.76842 | -1.51557 | 6001 ft | 276 kts | 313° |
| 2026-05-01 12:34 | 46.78190 | -1.53544 | 5681 ft | 276 kts | 314° |
| 2026-05-01 12:35 | 46.79547 | -1.55525 | 5438 ft | 274 kts | 314° |
| 2026-05-01 12:35 | 46.80868 | -1.57520 | 5181 ft | 273 kts | 311° |
| 2026-05-01 12:35 | 46.82138 | -1.59569 | 4896 ft | 271 kts | 311° |
| 2026-05-01 12:35 | 46.83396 | -1.61619 | 4605 ft | 271 kts | 311° |
| 2026-05-01 12:36 | 46.84651 | -1.63669 | 4355 ft | 270 kts | 311° |
| 2026-05-01 12:36 | 46.85894 | -1.65709 | 4144 ft | 268 kts | 311° |
| 2026-05-01 12:36 | 46.87104 | -1.67701 | 3946 ft | 264 kts | 311° |
| 2026-05-01 12:36 | 46.88310 | -1.69691 | 3773 ft | 260 kts | 311° |
| 2026-05-01 12:37 | 46.89502 | -1.71661 | 3579 ft | 257 kts | 311° |
| 2026-05-01 12:37 | 46.90678 | -1.73606 | 3426 ft | 253 kts | 311° |
| 2026-05-01 12:37 | 46.91829 | -1.75509 | 3290 ft | 247 kts | 313° |
| 2026-05-01 12:37 | 46.93209 | -1.76905 | 3125 ft | 242 kts | 343° |
| 2026-05-01 12:38 | 46.94834 | -1.76849 | 3025 ft | 232 kts | 22° |
| 2026-05-01 12:38 | 46.96209 | -1.75740 | 3005 ft | 221 kts | 30° |
| 2026-05-01 12:38 | 46.97536 | -1.74701 | 3010 ft | 209 kts | 27° |
| 2026-05-01 12:38 | 46.98794 | -1.73746 | 2991 ft | 201 kts | 28° |
| 2026-05-01 12:39 | 47.00044 | -1.72790 | 2998 ft | 200 kts | 28° |
| 2026-05-01 12:39 | 47.01253 | -1.71863 | 2898 ft | 193 kts | 28° |
| 2026-05-01 12:39 | 47.02414 | -1.70971 | 2679 ft | 189 kts | 28° |
| 2026-05-01 12:39 | 47.03571 | -1.70083 | 2427 ft | 187 kts | 28° |
| 2026-05-01 12:40 | 47.04714 | -1.69207 | 2186 ft | 184 kts | 28° |
| 2026-05-01 12:40 | 47.05840 | -1.68342 | 1945 ft | 181 kts | 28° |
| 2026-05-01 12:40 | 47.06942 | -1.67496 | 1702 ft | 176 kts | 28° |
| 2026-05-01 12:40 | 47.07997 | -1.66686 | 1478 ft | 165 kts | 27° |
| 2026-05-01 12:41 | 47.08997 | -1.65920 | 1263 ft | 159 kts | 28° |
| 2026-05-01 12:41 | 47.09976 | -1.65168 | 1079 ft | 155 kts | 27° |
| 2026-05-01 12:41 | 47.10924 | -1.64442 | 838 ft | 152 kts | 26° |
| 2026-05-01 12:41 | 47.11866 | -1.63715 | 648 ft | 154 kts | 27° |
| 2026-05-01 12:42 | 47.12807 | -1.62992 | 447 ft | 154 kts | 26° |
| 2026-05-01 12:42 | 47.13757 | -1.62263 | 213 ft | 154 kts | 26° |
| 2026-05-01 12:42 | 47.14688 | -1.61552 | 90 ft | 144 kts | 27° |
| 2026-05-01 12:42 | 47.15392 | -1.61016 | 87 ft | 82 kts | 27° |
| 2026-05-01 12:43 | 47.15701 | -1.60782 | 86 ft | 27 kts | 28° |
| 2026-05-01 12:43 | 47.15826 | -1.60687 | 81 ft | 10 kts | 27° |
| 2026-05-01 12:43 | 47.15851 | -1.60629 | 85 ft | 6 kts | 94° |
| 2026-05-01 12:43 | 47.15841 | -1.60590 | 85 ft | 4 kts | 119° |
| 2026-05-01 12:44 | 47.15827 | -1.60561 | 81 ft | 3 kts | 126° |
| 2026-05-01 12:44 | 47.15813 | -1.60533 | 83 ft | 3 kts | 126° |
| 2026-05-01 12:44 | 47.15791 | -1.60467 | 84 ft | 6 kts | 89° |
| 2026-05-01 12:45 | 47.15780 | -1.60368 | 87 ft | 3 kts | 124° |
| 2026-05-01 12:45 | 47.15771 | -1.60351 | 84 ft | 0 kts | 126° |